sensor_id;sensor_type;location;lat;lon;timestamp;temperature;humidity
12557;DHT22;6344;49.932;8.308;2023-07-28T13:14:38;27.60;99.90
12557;DHT22;6344;49.932;8.308;2023-07-28T13:17:05;27.50;99.90
12557;DHT22;6344;49.932;8.308;2023-07-28T13:19:32;27.20;99.90
12557;DHT22;6344;49.932;8.308;2023-07-28T13:22:00;27.10;99.90
12557;DHT22;6344;49.932;8.308;2023-07-28T13:24:27;27.00;99.90
12557;DHT22;6344;49.932;8.308;2023-07-28T13:26:53;26.60;99.90
12557;DHT22;6344;49.932;8.308;2023-07-28T13:29:20;26.20;99.90
12557;DHT22;6344;49.932;8.308;2023-07-28T13:31:46;26.00;99.90
12557;DHT22;6344;49.932;8.308;2023-07-28T13:34:13;26.20;99.90
12557;DHT22;6344;49.932;8.308;2023-07-28T13:36:40;25.80;99.90
12557;DHT22;6344;49.932;8.308;2023-07-28T13:39:10;26.30;99.90
12557;DHT22;6344;49.932;8.308;2023-07-28T13:41:37;26.50;99.90
12557;DHT22;6344;49.932;8.308;2023-07-28T13:44:03;26.30;99.90
12557;DHT22;6344;49.932;8.308;2023-07-28T13:46:30;26.50;99.90
12557;DHT22;6344;49.932;8.308;2023-07-28T13:48:57;26.50;99.90
12557;DHT22;6344;49.932;8.308;2023-07-28T13:51:23;26.30;99.90
12557;DHT22;6344;49.932;8.308;2023-07-28T13:53:50;26.10;99.90
12557;DHT22;6344;49.932;8.308;2023-07-28T13:56:18;25.50;99.90
12557;DHT22;6344;49.932;8.308;2023-07-28T13:58:45;25.50;99.90
12557;DHT22;6344;49.932;8.308;2023-07-28T14:01:11;25.10;99.90
12557;DHT22;6344;49.932;8.308;2023-07-28T14:03:38;25.00;99.90
12557;DHT22;6344;49.932;8.308;2023-07-28T14:06:05;24.70;99.90
12557;DHT22;6344;49.932;8.308;2023-07-28T14:08:31;24.70;99.90
12557;DHT22;6344;49.932;8.308;2023-07-28T14:10:58;25.00;99.90
12557;DHT22;6344;49.932;8.308;2023-07-28T14:13:26;24.90;99.90
12557;DHT22;6344;49.932;8.308;2023-07-28T14:15:52;24.70;99.90
12557;DHT22;6344;49.932;8.308;2023-07-28T14:18:20;24.70;99.90
12557;DHT22;6344;49.932;8.308;2023-07-28T14:20:47;24.50;99.90
12557;DHT22;6344;49.932;8.308;2023-07-28T14:23:24;24.40;99.90
12557;DHT22;6344;49.932;8.308;2023-07-28T14:25:51;24.30;99.90
12557;DHT22;6344;49.932;8.308;2023-07-28T14:28:19;24.40;99.90
12557;DHT22;6344;49.932;8.308;2023-07-28T14:30:47;24.30;99.90
12557;DHT22;6344;49.932;8.308;2023-07-28T14:33:16;24.60;99.90
12557;DHT22;6344;49.932;8.308;2023-07-28T14:35:44;24.40;99.90
12557;DHT22;6344;49.932;8.308;2023-07-28T14:38:11;24.40;99.90
12557;DHT22;6344;49.932;8.308;2023-07-28T14:40:37;24.20;99.90
12557;DHT22;6344;49.932;8.308;2023-07-28T14:43:05;24.10;99.90
12557;DHT22;6344;49.932;8.308;2023-07-28T14:45:32;24.30;99.90
12557;DHT22;6344;49.932;8.308;2023-07-28T14:48:01;24.40;99.90
12557;DHT22;6344;49.932;8.308;2023-07-28T14:50:28;24.20;99.90
12557;DHT22;6344;49.932;8.308;2023-07-28T14:52:57;24.40;99.90
12557;DHT22;6344;49.932;8.308;2023-07-28T14:55:24;24.70;99.90
12557;DHT22;6344;49.932;8.308;2023-07-28T14:57:51;24.90;99.90
12557;DHT22;6344;49.932;8.308;2023-07-28T15:00:18;25.00;99.90
12557;DHT22;6344;49.932;8.308;2023-07-28T15:02:45;25.40;99.90
12557;DHT22;6344;49.932;8.308;2023-07-28T15:05:13;25.70;99.90
12557;DHT22;6344;49.932;8.308;2023-07-28T15:07:39;25.90;99.90
12557;DHT22;6344;49.932;8.308;2023-07-28T15:10:06;25.70;99.90
12557;DHT22;6344;49.932;8.308;2023-07-28T15:12:33;25.70;99.90
12557;DHT22;6344;49.932;8.308;2023-07-28T15:15:00;25.30;99.90
12557;DHT22;6344;49.932;8.308;2023-07-28T15:17:26;25.40;99.90
12557;DHT22;6344;49.932;8.308;2023-07-28T15:19:53;25.20;99.90
12557;DHT22;6344;49.932;8.308;2023-07-28T15:22:21;25.00;99.90
12557;DHT22;6344;49.932;8.308;2023-07-28T15:24:48;25.10;99.90
12557;DHT22;6344;49.932;8.308;2023-07-28T15:27:14;24.90;99.90
12557;DHT22;6344;49.932;8.308;2023-07-28T15:29:41;24.60;99.90
12557;DHT22;6344;49.932;8.308;2023-07-28T15:32:07;24.40;99.90
12557;DHT22;6344;49.932;8.308;2023-07-28T15:34:34;24.30;99.90
12557;DHT22;6344;49.932;8.308;2023-07-28T15:37:01;24.20;99.90
12557;DHT22;6344;49.932;8.308;2023-07-28T15:39:30;24.20;99.90
12557;DHT22;6344;49.932;8.308;2023-07-28T15:41:57;24.10;99.90
12557;DHT22;6344;49.932;8.308;2023-07-28T15:44:23;24.20;99.90
12557;DHT22;6344;49.932;8.308;2023-07-28T15:46:50;24.00;99.90
12557;DHT22;6344;49.932;8.308;2023-07-28T15:49:18;24.10;99.90
12557;DHT22;6344;49.932;8.308;2023-07-28T15:51:45;24.20;99.90
12557;DHT22;6344;49.932;8.308;2023-07-28T15:54:11;24.10;99.90
12557;DHT22;6344;49.932;8.308;2023-07-28T15:56:39;24.20;99.90
12557;DHT22;6344;49.932;8.308;2023-07-28T15:59:06;24.40;99.90
12557;DHT22;6344;49.932;8.308;2023-07-28T16:01:33;24.20;99.90
12557;DHT22;6344;49.932;8.308;2023-07-28T16:03:59;24.10;99.90
12557;DHT22;6344;49.932;8.308;2023-07-28T16:06:26;24.20;99.90
12557;DHT22;6344;49.932;8.308;2023-07-28T16:08:53;24.50;99.90
12557;DHT22;6344;49.932;8.308;2023-07-28T16:11:19;24.70;99.90
12557;DHT22;6344;49.932;8.308;2023-07-28T16:13:47;24.50;99.90
12557;DHT22;6344;49.932;8.308;2023-07-28T16:16:14;24.40;99.90
12557;DHT22;6344;49.932;8.308;2023-07-28T16:18:41;24.80;99.90
12557;DHT22;6344;49.932;8.308;2023-07-28T16:21:07;24.80;99.90
12557;DHT22;6344;49.932;8.308;2023-07-28T16:23:34;24.70;99.90
12557;DHT22;6344;49.932;8.308;2023-07-28T16:26:01;24.70;99.90
12557;DHT22;6344;49.932;8.308;2023-07-28T16:28:27;24.70;99.90
12557;DHT22;6344;49.932;8.308;2023-07-28T16:30:55;24.70;99.90
12557;DHT22;6344;49.932;8.308;2023-07-28T16:33:22;24.90;99.90
12557;DHT22;6344;49.932;8.308;2023-07-28T16:35:48;24.60;99.90
12557;DHT22;6344;49.932;8.308;2023-07-28T16:38:15;24.80;99.90
12557;DHT22;6344;49.932;8.308;2023-07-28T16:40:42;24.80;99.90
12557;DHT22;6344;49.932;8.308;2023-07-28T16:43:08;24.50;99.90
12557;DHT22;6344;49.932;8.308;2023-07-28T16:45:35;24.70;99.90
12557;DHT22;6344;49.932;8.308;2023-07-28T16:48:03;24.50;99.90
12557;DHT22;6344;49.932;8.308;2023-07-28T16:50:30;24.60;99.90
12557;DHT22;6344;49.932;8.308;2023-07-28T16:52:56;24.40;99.90
12557;DHT22;6344;49.932;8.308;2023-07-28T16:55:23;24.50;99.90
12557;DHT22;6344;49.932;8.308;2023-07-28T16:57:50;24.50;99.90
12557;DHT22;6344;49.932;8.308;2023-07-28T17:00:16;24.20;99.90
12557;DHT22;6344;49.932;8.308;2023-07-28T17:02:43;24.30;99.90
12557;DHT22;6344;49.932;8.308;2023-07-28T17:05:11;24.20;99.90
12557;DHT22;6344;49.932;8.308;2023-07-28T17:07:38;24.00;99.90
12557;DHT22;6344;49.932;8.308;2023-07-28T17:10:05;23.80;99.90
12557;DHT22;6344;49.932;8.308;2023-07-28T17:12:32;23.60;99.90
12557;DHT22;6344;49.932;8.308;2023-07-28T17:14:59;23.50;99.90
12557;DHT22;6344;49.932;8.308;2023-07-28T17:17:25;23.30;99.90
12557;DHT22;6344;49.932;8.308;2023-07-28T17:19:52;23.10;99.90
12557;DHT22;6344;49.932;8.308;2023-07-28T17:22:20;23.20;99.90
12557;DHT22;6344;49.932;8.308;2023-07-28T17:24:47;23.30;99.90
12557;DHT22;6344;49.932;8.308;2023-07-28T17:27:15;23.50;99.90
12557;DHT22;6344;49.932;8.308;2023-07-28T17:29:42;23.70;99.90
12557;DHT22;6344;49.932;8.308;2023-07-28T17:32:09;23.60;99.90
12557;DHT22;6344;49.932;8.308;2023-07-28T17:34:36;23.50;99.90
12557;DHT22;6344;49.932;8.308;2023-07-28T17:37:03;23.50;99.90
12557;DHT22;6344;49.932;8.308;2023-07-28T17:39:32;23.40;99.90
12557;DHT22;6344;49.932;8.308;2023-07-28T17:41:59;23.20;99.90
12557;DHT22;6344;49.932;8.308;2023-07-28T17:44:25;23.10;99.90
12557;DHT22;6344;49.932;8.308;2023-07-28T17:46:52;23.00;99.90
12557;DHT22;6344;49.932;8.308;2023-07-28T17:49:19;22.90;99.90
12557;DHT22;6344;49.932;8.308;2023-07-28T17:51:45;22.80;99.90
12557;DHT22;6344;49.932;8.308;2023-07-28T17:54:12;22.80;99.90
12557;DHT22;6344;49.932;8.308;2023-07-28T17:56:40;22.90;99.90
12557;DHT22;6344;49.932;8.308;2023-07-28T17:59:06;22.60;99.90
12557;DHT22;6344;49.932;8.308;2023-07-28T18:01:33;22.60;99.90
12557;DHT22;6344;49.932;8.308;2023-07-28T18:04:00;22.40;99.90
12557;DHT22;6344;49.932;8.308;2023-07-28T18:06:27;22.40;99.90
12557;DHT22;6344;49.932;8.308;2023-07-28T18:08:53;22.20;99.90
12557;DHT22;6344;49.932;8.308;2023-07-28T18:11:20;22.20;99.90
12557;DHT22;6344;49.932;8.308;2023-07-28T18:13:48;22.10;99.90
12557;DHT22;6344;49.932;8.308;2023-07-28T18:16:15;22.20;99.90
12557;DHT22;6344;49.932;8.308;2023-07-28T18:18:42;22.20;99.90
12557;DHT22;6344;49.932;8.308;2023-07-28T18:21:09;22.10;99.90
12557;DHT22;6344;49.932;8.308;2023-07-28T18:23:35;22.10;99.90
12557;DHT22;6344;49.932;8.308;2023-07-28T18:26:02;22.10;99.90
12557;DHT22;6344;49.932;8.308;2023-07-28T18:28:29;22.00;99.90
12557;DHT22;6344;49.932;8.308;2023-07-28T18:30:57;22.00;99.90
12557;DHT22;6344;49.932;8.308;2023-07-28T18:33:24;22.20;99.90
12557;DHT22;6344;49.932;8.308;2023-07-28T18:35:51;22.00;99.90
12557;DHT22;6344;49.932;8.308;2023-07-28T18:38:18;22.00;99.90
12557;DHT22;6344;49.932;8.308;2023-07-28T18:40:45;21.90;99.90
12557;DHT22;6344;49.932;8.308;2023-07-28T18:43:12;21.90;99.90
12557;DHT22;6344;49.932;8.308;2023-07-28T18:45:38;21.90;99.90
12557;DHT22;6344;49.932;8.308;2023-07-28T18:48:06;21.70;99.90
12557;DHT22;6344;49.932;8.308;2023-07-28T18:50:33;21.70;99.90
12557;DHT22;6344;49.932;8.308;2023-07-28T18:52:59;21.50;99.90
12557;DHT22;6344;49.932;8.308;2023-07-28T18:55:26;21.50;99.90
12557;DHT22;6344;49.932;8.308;2023-07-28T18:57:53;21.50;99.90
12557;DHT22;6344;49.932;8.308;2023-07-28T19:00:20;21.50;99.90
12557;DHT22;6344;49.932;8.308;2023-07-28T19:02:46;21.40;99.90
12557;DHT22;6344;49.932;8.308;2023-07-28T19:05:21;21.40;99.90
12557;DHT22;6344;49.932;8.308;2023-07-28T19:07:48;21.30;99.90
12557;DHT22;6344;49.932;8.308;2023-07-28T19:10:14;21.30;99.90
12557;DHT22;6344;49.932;8.308;2023-07-28T19:12:41;21.30;99.90
12557;DHT22;6344;49.932;8.308;2023-07-28T19:15:09;21.20;99.90
12557;DHT22;6344;49.932;8.308;2023-07-28T19:17:36;21.20;99.90
12557;DHT22;6344;49.932;8.308;2023-07-28T19:20:04;21.20;99.90
12557;DHT22;6344;49.932;8.308;2023-07-28T19:22:34;21.20;99.90
12557;DHT22;6344;49.932;8.308;2023-07-28T19:25:00;21.20;99.90
12557;DHT22;6344;49.932;8.308;2023-07-28T19:27:28;21.20;99.90
12557;DHT22;6344;49.932;8.308;2023-07-28T19:29:55;21.10;99.90
12557;DHT22;6344;49.932;8.308;2023-07-28T19:32:22;21.00;99.90
12557;DHT22;6344;49.932;8.308;2023-07-28T19:34:50;21.00;99.90
12557;DHT22;6344;49.932;8.308;2023-07-28T19:37:17;20.90;99.90
12557;DHT22;6344;49.932;8.308;2023-07-28T19:39:45;20.80;99.90
12557;DHT22;6344;49.932;8.308;2023-07-28T19:42:14;20.80;99.90
12557;DHT22;6344;49.932;8.308;2023-07-28T19:44:40;20.70;99.90
12557;DHT22;6344;49.932;8.308;2023-07-28T19:47:07;20.70;99.90
12557;DHT22;6344;49.932;8.308;2023-07-28T19:49:34;20.60;99.90
12557;DHT22;6344;49.932;8.308;2023-07-28T19:52:00;20.50;99.90
12557;DHT22;6344;49.932;8.308;2023-07-28T19:54:27;20.50;99.90
12557;DHT22;6344;49.932;8.308;2023-07-28T19:56:56;20.40;99.90
12557;DHT22;6344;49.932;8.308;2023-07-28T19:59:23;20.40;99.90
12557;DHT22;6344;49.932;8.308;2023-07-28T20:01:49;20.30;99.90
12557;DHT22;6344;49.932;8.308;2023-07-28T20:04:16;20.20;99.90
12557;DHT22;6344;49.932;8.308;2023-07-28T20:06:44;20.20;99.90
12557;DHT22;6344;49.932;8.308;2023-07-28T20:09:10;20.20;99.90
12557;DHT22;6344;49.932;8.308;2023-07-28T20:11:37;20.20;99.90
12557;DHT22;6344;49.932;8.308;2023-07-28T20:14:05;20.20;99.90
12557;DHT22;6344;49.932;8.308;2023-07-28T20:16:32;20.10;99.90
12557;DHT22;6344;49.932;8.308;2023-07-28T20:18:58;20.10;99.90
12557;DHT22;6344;49.932;8.308;2023-07-28T20:21:25;19.90;99.90
12557;DHT22;6344;49.932;8.308;2023-07-28T20:23:52;19.90;99.90
12557;DHT22;6344;49.932;8.308;2023-07-28T20:26:18;19.80;99.90
12557;DHT22;6344;49.932;8.308;2023-07-28T20:28:45;19.80;99.90
12557;DHT22;6344;49.932;8.308;2023-07-28T20:31:13;19.70;99.90
12557;DHT22;6344;49.932;8.308;2023-07-28T20:33:39;19.70;99.90
12557;DHT22;6344;49.932;8.308;2023-07-28T20:36:06;19.60;99.90
12557;DHT22;6344;49.932;8.308;2023-07-28T20:38:33;19.60;99.90
12557;DHT22;6344;49.932;8.308;2023-07-28T20:40:59;19.50;99.90
12557;DHT22;6344;49.932;8.308;2023-07-28T20:43:26;19.40;99.90
12557;DHT22;6344;49.932;8.308;2023-07-28T20:45:53;19.40;99.90
12557;DHT22;6344;49.932;8.308;2023-07-28T20:48:21;19.40;99.90
12557;DHT22;6344;49.932;8.308;2023-07-28T20:50:48;19.40;99.90
12557;DHT22;6344;49.932;8.308;2023-07-28T20:53:15;19.40;99.90
12557;DHT22;6344;49.932;8.308;2023-07-28T20:55:47;19.30;99.90
12557;DHT22;6344;49.932;8.308;2023-07-28T20:58:13;19.30;99.90
12557;DHT22;6344;49.932;8.308;2023-07-28T21:00:40;19.20;99.90
12557;DHT22;6344;49.932;8.308;2023-07-28T21:03:07;19.10;99.90
12557;DHT22;6344;49.932;8.308;2023-07-28T21:05:35;19.00;99.90
12557;DHT22;6344;49.932;8.308;2023-07-28T21:08:02;19.00;99.90
12557;DHT22;6344;49.932;8.308;2023-07-28T21:10:29;19.00;99.90
12557;DHT22;6344;49.932;8.308;2023-07-28T21:12:58;18.90;99.90
12557;DHT22;6344;49.932;8.308;2023-07-28T21:15:24;18.90;99.90
12557;DHT22;6344;49.932;8.308;2023-07-28T21:17:51;18.80;99.90
12557;DHT22;6344;49.932;8.308;2023-07-28T21:20:18;18.70;99.90
12557;DHT22;6344;49.932;8.308;2023-07-28T21:22:46;18.60;99.90
12557;DHT22;6344;49.932;8.308;2023-07-28T21:25:12;18.60;99.90
12557;DHT22;6344;49.932;8.308;2023-07-28T21:27:39;18.50;99.90
12557;DHT22;6344;49.932;8.308;2023-07-28T21:30:06;18.60;99.90
12557;DHT22;6344;49.932;8.308;2023-07-28T21:32:35;18.50;99.90
12557;DHT22;6344;49.932;8.308;2023-07-28T21:35:02;18.60;99.90
12557;DHT22;6344;49.932;8.308;2023-07-28T21:37:29;18.60;99.90
12557;DHT22;6344;49.932;8.308;2023-07-28T21:39:57;18.70;99.90
12557;DHT22;6344;49.932;8.308;2023-07-28T21:42:24;18.70;99.90
12557;DHT22;6344;49.932;8.308;2023-07-28T21:44:50;18.60;99.90
12557;DHT22;6344;49.932;8.308;2023-07-28T21:47:17;18.60;99.90
12557;DHT22;6344;49.932;8.308;2023-07-28T21:49:43;18.50;99.90
12557;DHT22;6344;49.932;8.308;2023-07-28T21:52:10;18.50;99.90
12557;DHT22;6344;49.932;8.308;2023-07-28T21:54:37;18.50;99.90
12557;DHT22;6344;49.932;8.308;2023-07-28T21:57:05;18.40;99.90
12557;DHT22;6344;49.932;8.308;2023-07-28T21:59:32;18.30;99.90
12557;DHT22;6344;49.932;8.308;2023-07-28T22:01:59;18.20;99.90
12557;DHT22;6344;49.932;8.308;2023-07-28T22:04:25;18.10;99.90
12557;DHT22;6344;49.932;8.308;2023-07-28T22:06:52;18.00;99.90
12557;DHT22;6344;49.932;8.308;2023-07-28T22:09:18;18.00;99.90
12557;DHT22;6344;49.932;8.308;2023-07-28T22:11:45;17.90;99.90
12557;DHT22;6344;49.932;8.308;2023-07-28T22:14:13;17.80;99.90
12557;DHT22;6344;49.932;8.308;2023-07-28T22:16:41;17.70;99.90
12557;DHT22;6344;49.932;8.308;2023-07-28T22:19:08;17.70;99.90
12557;DHT22;6344;49.932;8.308;2023-07-28T22:21:35;17.60;99.90
12557;DHT22;6344;49.932;8.308;2023-07-28T22:24:01;17.50;99.90
12557;DHT22;6344;49.932;8.308;2023-07-28T22:26:28;17.40;99.90
12557;DHT22;6344;49.932;8.308;2023-07-28T22:28:55;17.40;99.90
12557;DHT22;6344;49.932;8.308;2023-07-28T22:31:23;17.40;99.90
12557;DHT22;6344;49.932;8.308;2023-07-28T22:33:49;17.40;99.90
12557;DHT22;6344;49.932;8.308;2023-07-28T22:36:16;17.30;99.90
12557;DHT22;6344;49.932;8.308;2023-07-28T22:38:43;17.20;99.90
12557;DHT22;6344;49.932;8.308;2023-07-28T22:41:09;17.20;99.90
12557;DHT22;6344;49.932;8.308;2023-07-28T22:43:36;17.20;99.90
12557;DHT22;6344;49.932;8.308;2023-07-28T22:46:03;17.20;99.90
12557;DHT22;6344;49.932;8.308;2023-07-28T22:48:31;17.20;99.90
12557;DHT22;6344;49.932;8.308;2023-07-28T22:50:57;17.20;99.90
12557;DHT22;6344;49.932;8.308;2023-07-28T22:53:24;17.20;99.90
12557;DHT22;6344;49.932;8.308;2023-07-28T22:55:52;17.20;99.90
12557;DHT22;6344;49.932;8.308;2023-07-28T22:58:19;17.20;99.90
12557;DHT22;6344;49.932;8.308;2023-07-28T23:00:45;17.30;99.90
12557;DHT22;6344;49.932;8.308;2023-07-28T23:03:12;17.20;99.90
12557;DHT22;6344;49.932;8.308;2023-07-28T23:05:40;17.10;99.90
12557;DHT22;6344;49.932;8.308;2023-07-28T23:08:07;17.10;99.90
12557;DHT22;6344;49.932;8.308;2023-07-28T23:10:33;17.00;99.90
12557;DHT22;6344;49.932;8.308;2023-07-28T23:13:00;16.90;99.90
12557;DHT22;6344;49.932;8.308;2023-07-28T23:15:27;17.00;99.90
12557;DHT22;6344;49.932;8.308;2023-07-28T23:17:53;17.00;99.90
12557;DHT22;6344;49.932;8.308;2023-07-28T23:20:20;17.10;99.90
12557;DHT22;6344;49.932;8.308;2023-07-28T23:22:48;17.10;99.90
12557;DHT22;6344;49.932;8.308;2023-07-28T23:25:15;17.00;99.90
12557;DHT22;6344;49.932;8.308;2023-07-28T23:27:41;17.00;99.90
12557;DHT22;6344;49.932;8.308;2023-07-28T23:30:08;17.00;99.90
12557;DHT22;6344;49.932;8.308;2023-07-28T23:32:35;17.00;99.90
12557;DHT22;6344;49.932;8.308;2023-07-28T23:35:02;17.10;99.90
12557;DHT22;6344;49.932;8.308;2023-07-28T23:37:30;17.10;99.90
12557;DHT22;6344;49.932;8.308;2023-07-28T23:39:58;17.20;99.90
12557;DHT22;6344;49.932;8.308;2023-07-28T23:42:25;17.20;99.90
12557;DHT22;6344;49.932;8.308;2023-07-28T23:44:51;17.30;99.90
12557;DHT22;6344;49.932;8.308;2023-07-28T23:47:18;17.30;99.90
12557;DHT22;6344;49.932;8.308;2023-07-28T23:49:45;17.40;99.90
12557;DHT22;6344;49.932;8.308;2023-07-28T23:52:11;17.40;99.90
12557;DHT22;6344;49.932;8.308;2023-07-28T23:54:38;17.50;99.90
12557;DHT22;6344;49.932;8.308;2023-07-28T23:57:07;17.60;99.90
12557;DHT22;6344;49.932;8.308;2023-07-28T23:59:33;17.70;99.90
